sensor_id;sensor_type;location;lat;lon;timestamp;temperature;humidity
60868;DHT22;46702;48.370;10.794;2023-08-21T00:01:18;21.50;99.90
60868;DHT22;46702;48.370;10.794;2023-08-21T00:03:43;21.40;99.90
60868;DHT22;46702;48.370;10.794;2023-08-21T00:06:10;21.50;99.90
60868;DHT22;46702;48.370;10.794;2023-08-21T00:08:35;21.60;99.90
60868;DHT22;46702;48.370;10.794;2023-08-21T00:11:01;21.50;99.90
60868;DHT22;46702;48.370;10.794;2023-08-21T00:13:26;21.50;99.90
60868;DHT22;46702;48.370;10.794;2023-08-21T00:15:52;21.40;99.90
60868;DHT22;46702;48.370;10.794;2023-08-21T00:18:19;21.40;99.90
60868;DHT22;46702;48.370;10.794;2023-08-21T00:20:45;21.30;99.90
60868;DHT22;46702;48.370;10.794;2023-08-21T00:23:10;21.30;99.90
60868;DHT22;46702;48.370;10.794;2023-08-21T00:25:36;21.30;99.90
60868;DHT22;46702;48.370;10.794;2023-08-21T00:28:02;21.30;99.90
60868;DHT22;46702;48.370;10.794;2023-08-21T00:30:27;21.30;99.90
60868;DHT22;46702;48.370;10.794;2023-08-21T00:32:53;21.20;99.90
60868;DHT22;46702;48.370;10.794;2023-08-21T00:35:18;21.20;99.90
60868;DHT22;46702;48.370;10.794;2023-08-21T00:37:44;21.10;99.90
60868;DHT22;46702;48.370;10.794;2023-08-21T00:40:10;21.00;99.90
60868;DHT22;46702;48.370;10.794;2023-08-21T00:42:36;20.90;99.90
60868;DHT22;46702;48.370;10.794;2023-08-21T00:45:01;20.90;99.90
60868;DHT22;46702;48.370;10.794;2023-08-21T00:47:28;20.90;99.90
60868;DHT22;46702;48.370;10.794;2023-08-21T00:49:54;21.00;99.90
60868;DHT22;46702;48.370;10.794;2023-08-21T00:52:20;21.00;99.90
60868;DHT22;46702;48.370;10.794;2023-08-21T00:54:46;20.90;99.90
60868;DHT22;46702;48.370;10.794;2023-08-21T00:57:12;20.90;99.90
60868;DHT22;46702;48.370;10.794;2023-08-21T00:59:38;20.90;99.90
60868;DHT22;46702;48.370;10.794;2023-08-21T01:02:04;20.80;99.90
60868;DHT22;46702;48.370;10.794;2023-08-21T01:04:30;20.70;99.90
60868;DHT22;46702;48.370;10.794;2023-08-21T01:06:57;20.70;99.90
60868;DHT22;46702;48.370;10.794;2023-08-21T01:09:55;20.70;99.90
60868;DHT22;46702;48.370;10.794;2023-08-21T01:15:06;20.60;99.90
60868;DHT22;46702;48.370;10.794;2023-08-21T01:17:33;20.60;99.90
60868;DHT22;46702;48.370;10.794;2023-08-21T01:19:59;20.50;99.90
60868;DHT22;46702;48.370;10.794;2023-08-21T01:22:26;20.60;99.90
60868;DHT22;46702;48.370;10.794;2023-08-21T01:24:54;20.60;99.90
60868;DHT22;46702;48.370;10.794;2023-08-21T01:27:19;20.70;99.90
60868;DHT22;46702;48.370;10.794;2023-08-21T01:29:47;20.70;99.90
60868;DHT22;46702;48.370;10.794;2023-08-21T01:34:42;20.60;99.90
60868;DHT22;46702;48.370;10.794;2023-08-21T01:37:08;20.40;99.90
60868;DHT22;46702;48.370;10.794;2023-08-21T01:39:34;20.30;99.90
60868;DHT22;46702;48.370;10.794;2023-08-21T01:42:00;20.30;99.90
60868;DHT22;46702;48.370;10.794;2023-08-21T01:44:25;20.40;99.90
60868;DHT22;46702;48.370;10.794;2023-08-21T01:46:52;20.20;99.90
60868;DHT22;46702;48.370;10.794;2023-08-21T01:49:18;20.00;99.90
60868;DHT22;46702;48.370;10.794;2023-08-21T01:51:45;19.80;99.90
60868;DHT22;46702;48.370;10.794;2023-08-21T01:54:11;19.80;99.90
60868;DHT22;46702;48.370;10.794;2023-08-21T01:56:36;19.90;99.90
60868;DHT22;46702;48.370;10.794;2023-08-21T01:59:03;19.80;99.90
60868;DHT22;46702;48.370;10.794;2023-08-21T02:01:29;19.80;99.90
60868;DHT22;46702;48.370;10.794;2023-08-21T02:03:55;19.80;99.90
60868;DHT22;46702;48.370;10.794;2023-08-21T02:06:20;19.80;99.90
60868;DHT22;46702;48.370;10.794;2023-08-21T02:08:46;19.90;99.90
60868;DHT22;46702;48.370;10.794;2023-08-21T02:11:11;19.90;99.90
60868;DHT22;46702;48.370;10.794;2023-08-21T02:13:37;19.90;99.90
60868;DHT22;46702;48.370;10.794;2023-08-21T02:16:03;19.90;99.90
60868;DHT22;46702;48.370;10.794;2023-08-21T02:18:28;19.90;99.90
60868;DHT22;46702;48.370;10.794;2023-08-21T02:20:54;19.70;99.90
60868;DHT22;46702;48.370;10.794;2023-08-21T02:23:20;19.70;99.90
60868;DHT22;46702;48.370;10.794;2023-08-21T02:25:45;19.70;99.90
60868;DHT22;46702;48.370;10.794;2023-08-21T02:28:11;19.60;99.90
60868;DHT22;46702;48.370;10.794;2023-08-21T02:30:40;19.60;99.90
60868;DHT22;46702;48.370;10.794;2023-08-21T02:33:06;19.60;99.90
60868;DHT22;46702;48.370;10.794;2023-08-21T02:35:31;19.70;99.90
60868;DHT22;46702;48.370;10.794;2023-08-21T02:37:57;19.70;99.90
60868;DHT22;46702;48.370;10.794;2023-08-21T02:40:23;19.70;99.90
60868;DHT22;46702;48.370;10.794;2023-08-21T02:42:48;19.70;99.90
60868;DHT22;46702;48.370;10.794;2023-08-21T02:45:14;19.60;99.90
60868;DHT22;46702;48.370;10.794;2023-08-21T02:47:40;19.50;99.90
60868;DHT22;46702;48.370;10.794;2023-08-21T02:50:07;19.40;99.90
60868;DHT22;46702;48.370;10.794;2023-08-21T02:52:33;19.40;99.90
60868;DHT22;46702;48.370;10.794;2023-08-21T02:54:59;19.40;99.90
60868;DHT22;46702;48.370;10.794;2023-08-21T02:57:26;19.40;99.90
60868;DHT22;46702;48.370;10.794;2023-08-21T02:59:51;19.40;99.90
60868;DHT22;46702;48.370;10.794;2023-08-21T03:02:18;19.40;99.90
60868;DHT22;46702;48.370;10.794;2023-08-21T03:04:44;19.50;99.90
60868;DHT22;46702;48.370;10.794;2023-08-21T03:07:09;19.30;99.90
60868;DHT22;46702;48.370;10.794;2023-08-21T03:09:36;19.40;99.90
60868;DHT22;46702;48.370;10.794;2023-08-21T03:12:02;19.40;99.90
60868;DHT22;46702;48.370;10.794;2023-08-21T03:14:28;19.40;99.90
60868;DHT22;46702;48.370;10.794;2023-08-21T03:16:54;19.40;99.90
60868;DHT22;46702;48.370;10.794;2023-08-21T03:19:19;19.50;99.90
60868;DHT22;46702;48.370;10.794;2023-08-21T03:21:45;19.40;99.90
60868;DHT22;46702;48.370;10.794;2023-08-21T03:24:10;19.10;99.90
60868;DHT22;46702;48.370;10.794;2023-08-21T03:26:36;19.00;99.90
60868;DHT22;46702;48.370;10.794;2023-08-21T03:29:02;19.10;99.90
60868;DHT22;46702;48.370;10.794;2023-08-21T03:31:27;19.20;99.90
60868;DHT22;46702;48.370;10.794;2023-08-21T03:33:53;19.20;99.90
60868;DHT22;46702;48.370;10.794;2023-08-21T03:36:19;19.20;99.90
60868;DHT22;46702;48.370;10.794;2023-08-21T03:38:44;19.20;99.90
60868;DHT22;46702;48.370;10.794;2023-08-21T03:41:11;19.00;99.90
60868;DHT22;46702;48.370;10.794;2023-08-21T03:43:36;19.00;99.90
60868;DHT22;46702;48.370;10.794;2023-08-21T03:46:02;19.00;99.90
60868;DHT22;46702;48.370;10.794;2023-08-21T03:48:28;19.00;99.90
60868;DHT22;46702;48.370;10.794;2023-08-21T03:50:53;19.00;99.90
60868;DHT22;46702;48.370;10.794;2023-08-21T03:53:19;19.00;99.90
60868;DHT22;46702;48.370;10.794;2023-08-21T03:55:45;19.00;99.90
60868;DHT22;46702;48.370;10.794;2023-08-21T03:58:10;19.10;99.90
60868;DHT22;46702;48.370;10.794;2023-08-21T04:00:36;19.10;99.90
60868;DHT22;46702;48.370;10.794;2023-08-21T04:03:02;19.00;99.90
60868;DHT22;46702;48.370;10.794;2023-08-21T04:05:27;18.90;99.90
60868;DHT22;46702;48.370;10.794;2023-08-21T04:07:53;18.90;99.90
60868;DHT22;46702;48.370;10.794;2023-08-21T04:10:18;18.90;99.90
60868;DHT22;46702;48.370;10.794;2023-08-21T04:12:44;19.00;99.90
60868;DHT22;46702;48.370;10.794;2023-08-21T04:15:10;19.00;99.90
60868;DHT22;46702;48.370;10.794;2023-08-21T04:17:35;19.00;99.90
60868;DHT22;46702;48.370;10.794;2023-08-21T04:20:01;18.90;99.90
60868;DHT22;46702;48.370;10.794;2023-08-21T04:22:27;18.80;99.90
60868;DHT22;46702;48.370;10.794;2023-08-21T04:24:52;18.70;99.90
60868;DHT22;46702;48.370;10.794;2023-08-21T04:27:18;18.80;99.90
60868;DHT22;46702;48.370;10.794;2023-08-21T04:29:43;18.90;99.90
60868;DHT22;46702;48.370;10.794;2023-08-21T04:32:09;18.90;99.90
60868;DHT22;46702;48.370;10.794;2023-08-21T04:34:35;18.90;99.90
60868;DHT22;46702;48.370;10.794;2023-08-21T04:37:01;18.80;99.90
60868;DHT22;46702;48.370;10.794;2023-08-21T04:39:26;18.80;99.90
60868;DHT22;46702;48.370;10.794;2023-08-21T04:41:52;18.70;99.90
60868;DHT22;46702;48.370;10.794;2023-08-21T04:44:18;18.80;99.90
60868;DHT22;46702;48.370;10.794;2023-08-21T04:46:47;18.70;99.90
60868;DHT22;46702;48.370;10.794;2023-08-21T04:49:13;18.80;99.90
60868;DHT22;46702;48.370;10.794;2023-08-21T04:51:38;18.80;99.90
60868;DHT22;46702;48.370;10.794;2023-08-21T04:54:04;18.80;99.90
60868;DHT22;46702;48.370;10.794;2023-08-21T04:56:29;18.90;99.90
60868;DHT22;46702;48.370;10.794;2023-08-21T04:58:55;18.80;99.90
60868;DHT22;46702;48.370;10.794;2023-08-21T05:01:21;18.80;99.90
60868;DHT22;46702;48.370;10.794;2023-08-21T05:03:46;18.90;99.90
60868;DHT22;46702;48.370;10.794;2023-08-21T05:06:12;18.80;99.90
60868;DHT22;46702;48.370;10.794;2023-08-21T05:08:37;18.90;99.90
60868;DHT22;46702;48.370;10.794;2023-08-21T05:11:03;18.90;99.90
60868;DHT22;46702;48.370;10.794;2023-08-21T05:13:28;18.90;99.90
60868;DHT22;46702;48.370;10.794;2023-08-21T05:15:57;18.90;99.90
60868;DHT22;46702;48.370;10.794;2023-08-21T05:18:24;19.00;99.90
60868;DHT22;46702;48.370;10.794;2023-08-21T05:20:53;19.00;99.90
60868;DHT22;46702;48.370;10.794;2023-08-21T05:23:19;19.00;99.90
60868;DHT22;46702;48.370;10.794;2023-08-21T05:25:46;19.10;99.90
60868;DHT22;46702;48.370;10.794;2023-08-21T05:28:12;19.20;99.90
60868;DHT22;46702;48.370;10.794;2023-08-21T05:30:37;19.30;99.90
60868;DHT22;46702;48.370;10.794;2023-08-21T05:33:03;19.40;99.90
60868;DHT22;46702;48.370;10.794;2023-08-21T05:35:33;19.40;99.90
60868;DHT22;46702;48.370;10.794;2023-08-21T05:37:59;19.50;99.90
60868;DHT22;46702;48.370;10.794;2023-08-21T05:40:24;19.50;99.90
60868;DHT22;46702;48.370;10.794;2023-08-21T05:42:50;19.60;99.90
60868;DHT22;46702;48.370;10.794;2023-08-21T05:45:15;19.70;99.90
60868;DHT22;46702;48.370;10.794;2023-08-21T05:47:41;19.80;99.90
60868;DHT22;46702;48.370;10.794;2023-08-21T05:50:07;19.80;99.90
60868;DHT22;46702;48.370;10.794;2023-08-21T05:52:32;19.80;99.90
60868;DHT22;46702;48.370;10.794;2023-08-21T05:54:58;19.80;99.90
60868;DHT22;46702;48.370;10.794;2023-08-21T05:57:24;20.00;99.90
60868;DHT22;46702;48.370;10.794;2023-08-21T05:59:49;20.10;99.90
60868;DHT22;46702;48.370;10.794;2023-08-21T06:02:15;20.20;99.90
60868;DHT22;46702;48.370;10.794;2023-08-21T06:04:41;20.30;99.90
60868;DHT22;46702;48.370;10.794;2023-08-21T06:07:07;20.40;99.90
60868;DHT22;46702;48.370;10.794;2023-08-21T06:09:33;20.60;99.90
60868;DHT22;46702;48.370;10.794;2023-08-21T06:12:00;20.70;99.90
60868;DHT22;46702;48.370;10.794;2023-08-21T06:14:28;20.80;99.90
60868;DHT22;46702;48.370;10.794;2023-08-21T06:17:01;21.00;99.90
60868;DHT22;46702;48.370;10.794;2023-08-21T06:19:27;21.10;99.90
60868;DHT22;46702;48.370;10.794;2023-08-21T06:21:54;21.20;99.90
60868;DHT22;46702;48.370;10.794;2023-08-21T06:24:20;21.30;99.90
60868;DHT22;46702;48.370;10.794;2023-08-21T06:26:45;21.40;99.90
60868;DHT22;46702;48.370;10.794;2023-08-21T06:29:11;21.50;99.90
60868;DHT22;46702;48.370;10.794;2023-08-21T06:31:37;21.60;99.90
60868;DHT22;46702;48.370;10.794;2023-08-21T06:34:02;21.80;99.90
60868;DHT22;46702;48.370;10.794;2023-08-21T06:36:28;21.90;99.90
60868;DHT22;46702;48.370;10.794;2023-08-21T06:38:54;22.00;99.90
60868;DHT22;46702;48.370;10.794;2023-08-21T06:41:20;22.20;99.90
60868;DHT22;46702;48.370;10.794;2023-08-21T06:43:46;22.40;99.90
60868;DHT22;46702;48.370;10.794;2023-08-21T06:46:12;22.50;99.90
60868;DHT22;46702;48.370;10.794;2023-08-21T06:48:39;22.60;99.90
60868;DHT22;46702;48.370;10.794;2023-08-21T06:51:07;22.70;99.90
60868;DHT22;46702;48.370;10.794;2023-08-21T06:53:33;22.80;99.90
60868;DHT22;46702;48.370;10.794;2023-08-21T06:55:59;22.90;99.90
60868;DHT22;46702;48.370;10.794;2023-08-21T06:58:24;23.00;99.90
60868;DHT22;46702;48.370;10.794;2023-08-21T07:00:50;23.20;99.90
60868;DHT22;46702;48.370;10.794;2023-08-21T07:03:16;23.40;99.90
60868;DHT22;46702;48.370;10.794;2023-08-21T07:05:45;23.60;99.90
60868;DHT22;46702;48.370;10.794;2023-08-21T07:08:11;23.60;99.90
60868;DHT22;46702;48.370;10.794;2023-08-21T07:10:37;23.70;99.90
60868;DHT22;46702;48.370;10.794;2023-08-21T07:13:03;23.80;99.90
60868;DHT22;46702;48.370;10.794;2023-08-21T07:15:29;23.90;99.90
60868;DHT22;46702;48.370;10.794;2023-08-21T07:17:55;24.00;99.90
60868;DHT22;46702;48.370;10.794;2023-08-21T07:20:21;24.20;99.90
60868;DHT22;46702;48.370;10.794;2023-08-21T07:22:47;24.10;99.90
60868;DHT22;46702;48.370;10.794;2023-08-21T07:25:13;24.20;99.90
60868;DHT22;46702;48.370;10.794;2023-08-21T07:27:38;24.40;99.90
60868;DHT22;46702;48.370;10.794;2023-08-21T07:30:06;24.60;99.90
60868;DHT22;46702;48.370;10.794;2023-08-21T07:32:32;24.70;99.90
60868;DHT22;46702;48.370;10.794;2023-08-21T07:34:57;24.80;99.90
60868;DHT22;46702;48.370;10.794;2023-08-21T07:37:23;24.80;99.90
60868;DHT22;46702;48.370;10.794;2023-08-21T07:39:48;25.00;99.90
60868;DHT22;46702;48.370;10.794;2023-08-21T07:42:14;25.10;99.90
60868;DHT22;46702;48.370;10.794;2023-08-21T07:44:40;25.30;99.90
60868;DHT22;46702;48.370;10.794;2023-08-21T07:47:05;25.50;99.90
60868;DHT22;46702;48.370;10.794;2023-08-21T07:49:32;25.70;99.90
60868;DHT22;46702;48.370;10.794;2023-08-21T07:51:58;25.80;99.90
60868;DHT22;46702;48.370;10.794;2023-08-21T07:54:24;25.90;99.90
60868;DHT22;46702;48.370;10.794;2023-08-21T07:56:50;26.10;99.90
60868;DHT22;46702;48.370;10.794;2023-08-21T07:59:16;26.30;99.90
60868;DHT22;46702;48.370;10.794;2023-08-21T08:01:41;26.50;99.90
60868;DHT22;46702;48.370;10.794;2023-08-21T08:04:08;26.60;99.90
60868;DHT22;46702;48.370;10.794;2023-08-21T08:06:33;26.80;99.90
60868;DHT22;46702;48.370;10.794;2023-08-21T08:08:59;27.20;99.90
60868;DHT22;46702;48.370;10.794;2023-08-21T08:11:25;27.30;99.90
60868;DHT22;46702;48.370;10.794;2023-08-21T08:13:50;27.40;99.90
60868;DHT22;46702;48.370;10.794;2023-08-21T08:16:16;27.50;99.90
60868;DHT22;46702;48.370;10.794;2023-08-21T08:18:42;27.50;99.90
60868;DHT22;46702;48.370;10.794;2023-08-21T08:21:08;27.60;99.90
60868;DHT22;46702;48.370;10.794;2023-08-21T08:23:34;27.60;99.90
60868;DHT22;46702;48.370;10.794;2023-08-21T08:26:00;27.90;99.90
60868;DHT22;46702;48.370;10.794;2023-08-21T08:28:25;28.00;99.90
60868;DHT22;46702;48.370;10.794;2023-08-21T08:30:51;27.90;99.90
60868;DHT22;46702;48.370;10.794;2023-08-21T08:33:17;28.30;99.90
60868;DHT22;46702;48.370;10.794;2023-08-21T08:35:43;28.30;99.90
60868;DHT22;46702;48.370;10.794;2023-08-21T08:38:09;28.50;99.90
60868;DHT22;46702;48.370;10.794;2023-08-21T08:40:42;28.50;99.90
60868;DHT22;46702;48.370;10.794;2023-08-21T08:43:08;28.50;99.90
60868;DHT22;46702;48.370;10.794;2023-08-21T08:45:34;28.70;99.90
60868;DHT22;46702;48.370;10.794;2023-08-21T08:48:02;28.90;99.90
60868;DHT22;46702;48.370;10.794;2023-08-21T08:50:32;28.80;99.90
60868;DHT22;46702;48.370;10.794;2023-08-21T08:52:59;28.90;99.90
60868;DHT22;46702;48.370;10.794;2023-08-21T08:55:25;29.00;99.90
60868;DHT22;46702;48.370;10.794;2023-08-21T08:57:52;29.10;99.90
60868;DHT22;46702;48.370;10.794;2023-08-21T09:00:19;29.20;99.90
60868;DHT22;46702;48.370;10.794;2023-08-21T09:02:46;29.20;99.90
60868;DHT22;46702;48.370;10.794;2023-08-21T09:05:11;29.40;99.90
60868;DHT22;46702;48.370;10.794;2023-08-21T09:07:38;29.30;99.90
60868;DHT22;46702;48.370;10.794;2023-08-21T09:10:04;29.30;99.90
60868;DHT22;46702;48.370;10.794;2023-08-21T09:12:32;29.40;99.90
60868;DHT22;46702;48.370;10.794;2023-08-21T09:14:59;29.60;99.90
60868;DHT22;46702;48.370;10.794;2023-08-21T09:17:29;29.30;99.90
60868;DHT22;46702;48.370;10.794;2023-08-21T09:20:03;29.60;99.90
60868;DHT22;46702;48.370;10.794;2023-08-21T09:22:32;29.90;99.90
60868;DHT22;46702;48.370;10.794;2023-08-21T09:25:06;29.90;99.90
60868;DHT22;46702;48.370;10.794;2023-08-21T09:27:33;29.90;99.90
60868;DHT22;46702;48.370;10.794;2023-08-21T09:30:00;29.80;99.90
60868;DHT22;46702;48.370;10.794;2023-08-21T09:32:27;29.90;99.90
60868;DHT22;46702;48.370;10.794;2023-08-21T09:34:53;29.60;99.90
60868;DHT22;46702;48.370;10.794;2023-08-21T09:37:18;29.80;99.90
60868;DHT22;46702;48.370;10.794;2023-08-21T09:39:44;30.00;99.90
60868;DHT22;46702;48.370;10.794;2023-08-21T09:42:11;29.70;99.90
60868;DHT22;46702;48.370;10.794;2023-08-21T09:44:38;30.00;99.90
60868;DHT22;46702;48.370;10.794;2023-08-21T09:47:07;29.70;99.90
60868;DHT22;46702;48.370;10.794;2023-08-21T09:49:33;30.10;99.90
60868;DHT22;46702;48.370;10.794;2023-08-21T09:52:00;29.70;99.90
60868;DHT22;46702;48.370;10.794;2023-08-21T09:54:26;29.90;99.90
60868;DHT22;46702;48.370;10.794;2023-08-21T09:56:53;30.20;99.90
60868;DHT22;46702;48.370;10.794;2023-08-21T09:59:19;30.50;99.90
60868;DHT22;46702;48.370;10.794;2023-08-21T10:01:47;30.60;99.90
60868;DHT22;46702;48.370;10.794;2023-08-21T10:04:17;31.00;99.90
60868;DHT22;46702;48.370;10.794;2023-08-21T10:06:44;31.10;99.90
60868;DHT22;46702;48.370;10.794;2023-08-21T10:09:11;31.00;99.90
60868;DHT22;46702;48.370;10.794;2023-08-21T10:11:37;31.10;99.90
60868;DHT22;46702;48.370;10.794;2023-08-21T10:14:03;31.20;99.90
60868;DHT22;46702;48.370;10.794;2023-08-21T10:16:29;31.40;99.90
60868;DHT22;46702;48.370;10.794;2023-08-21T10:18:54;31.30;99.90
60868;DHT22;46702;48.370;10.794;2023-08-21T10:21:21;31.00;99.90
60868;DHT22;46702;48.370;10.794;2023-08-21T10:23:52;31.00;99.90
60868;DHT22;46702;48.370;10.794;2023-08-21T10:26:20;30.70;99.90
60868;DHT22;46702;48.370;10.794;2023-08-21T10:29:00;30.40;99.90
60868;DHT22;46702;48.370;10.794;2023-08-21T10:31:34;30.10;99.90
60868;DHT22;46702;48.370;10.794;2023-08-21T10:34:03;29.90;99.90
60868;DHT22;46702;48.370;10.794;2023-08-21T10:39:16;29.80;99.90
60868;DHT22;46702;48.370;10.794;2023-08-21T10:42:04;30.00;99.90
60868;DHT22;46702;48.370;10.794;2023-08-21T10:44:47;30.30;99.90
60868;DHT22;46702;48.370;10.794;2023-08-21T10:49:54;30.30;99.90
60868;DHT22;46702;48.370;10.794;2023-08-21T10:54:52;31.20;99.90
60868;DHT22;46702;48.370;10.794;2023-08-21T10:57:18;31.90;99.90
60868;DHT22;46702;48.370;10.794;2023-08-21T11:02:18;32.20;99.90
60868;DHT22;46702;48.370;10.794;2023-08-21T11:04:43;31.70;99.90
60868;DHT22;46702;48.370;10.794;2023-08-21T11:07:10;31.30;99.90
60868;DHT22;46702;48.370;10.794;2023-08-21T11:09:36;31.20;99.90
60868;DHT22;46702;48.370;10.794;2023-08-21T11:12:09;31.50;99.90
60868;DHT22;46702;48.370;10.794;2023-08-21T11:14:36;31.60;99.90
60868;DHT22;46702;48.370;10.794;2023-08-21T11:17:02;31.80;99.90
60868;DHT22;46702;48.370;10.794;2023-08-21T11:19:30;32.40;99.90
60868;DHT22;46702;48.370;10.794;2023-08-21T11:21:56;32.60;99.90
60868;DHT22;46702;48.370;10.794;2023-08-21T11:24:22;32.70;99.90
60868;DHT22;46702;48.370;10.794;2023-08-21T11:26:48;32.60;99.90
60868;DHT22;46702;48.370;10.794;2023-08-21T11:29:14;32.40;99.90
60868;DHT22;46702;48.370;10.794;2023-08-21T11:31:39;32.50;99.90
60868;DHT22;46702;48.370;10.794;2023-08-21T11:34:05;32.80;99.90
60868;DHT22;46702;48.370;10.794;2023-08-21T11:36:31;32.40;99.90
60868;DHT22;46702;48.370;10.794;2023-08-21T11:38:58;31.90;99.90
60868;DHT22;46702;48.370;10.794;2023-08-21T11:41:25;31.50;99.90
60868;DHT22;46702;48.370;10.794;2023-08-21T11:43:51;31.70;99.90
60868;DHT22;46702;48.370;10.794;2023-08-21T11:46:17;32.00;99.90
60868;DHT22;46702;48.370;10.794;2023-08-21T11:48:44;32.40;99.90
60868;DHT22;46702;48.370;10.794;2023-08-21T11:51:11;32.00;99.90
60868;DHT22;46702;48.370;10.794;2023-08-21T11:53:38;31.70;99.90
60868;DHT22;46702;48.370;10.794;2023-08-21T11:56:10;31.60;99.90
60868;DHT22;46702;48.370;10.794;2023-08-21T11:58:40;31.80;99.90
60868;DHT22;46702;48.370;10.794;2023-08-21T12:01:06;32.40;99.90
60868;DHT22;46702;48.370;10.794;2023-08-21T12:03:41;32.60;99.90
60868;DHT22;46702;48.370;10.794;2023-08-21T12:06:07;32.90;99.90
60868;DHT22;46702;48.370;10.794;2023-08-21T12:08:33;33.30;99.90
60868;DHT22;46702;48.370;10.794;2023-08-21T12:10:59;33.60;99.90
60868;DHT22;46702;48.370;10.794;2023-08-21T12:13:25;33.80;99.90
60868;DHT22;46702;48.370;10.794;2023-08-21T12:15:51;33.90;99.90
60868;DHT22;46702;48.370;10.794;2023-08-21T12:18:16;33.60;99.90
60868;DHT22;46702;48.370;10.794;2023-08-21T12:20:42;33.80;99.90
60868;DHT22;46702;48.370;10.794;2023-08-21T12:23:07;33.70;99.90
60868;DHT22;46702;48.370;10.794;2023-08-21T12:25:33;33.90;99.90
60868;DHT22;46702;48.370;10.794;2023-08-21T12:27:58;34.10;99.90
60868;DHT22;46702;48.370;10.794;2023-08-21T12:30:25;34.00;99.90
60868;DHT22;46702;48.370;10.794;2023-08-21T12:32:50;33.60;99.90
60868;DHT22;46702;48.370;10.794;2023-08-21T12:35:16;33.60;99.90
60868;DHT22;46702;48.370;10.794;2023-08-21T12:37:42;33.70;99.90
60868;DHT22;46702;48.370;10.794;2023-08-21T12:40:07;33.10;99.90
60868;DHT22;46702;48.370;10.794;2023-08-21T12:42:34;32.60;99.90
60868;DHT22;46702;48.370;10.794;2023-08-21T12:44:59;32.40;99.90
60868;DHT22;46702;48.370;10.794;2023-08-21T12:47:25;32.80;99.90
60868;DHT22;46702;48.370;10.794;2023-08-21T12:49:50;32.70;99.90
60868;DHT22;46702;48.370;10.794;2023-08-21T12:52:16;32.50;99.90
60868;DHT22;46702;48.370;10.794;2023-08-21T12:54:42;32.90;99.90
60868;DHT22;46702;48.370;10.794;2023-08-21T12:57:08;33.40;99.90
60868;DHT22;46702;48.370;10.794;2023-08-21T12:59:34;33.30;99.90
60868;DHT22;46702;48.370;10.794;2023-08-21T13:02:00;33.90;99.90
60868;DHT22;46702;48.370;10.794;2023-08-21T13:04:26;34.20;99.90
60868;DHT22;46702;48.370;10.794;2023-08-21T13:06:52;34.40;99.90
60868;DHT22;46702;48.370;10.794;2023-08-21T13:09:18;34.60;99.90
60868;DHT22;46702;48.370;10.794;2023-08-21T13:11:43;34.60;99.90
60868;DHT22;46702;48.370;10.794;2023-08-21T13:14:09;34.20;99.90
60868;DHT22;46702;48.370;10.794;2023-08-21T13:16:34;34.10;99.90
60868;DHT22;46702;48.370;10.794;2023-08-21T13:19:00;34.00;99.90
60868;DHT22;46702;48.370;10.794;2023-08-21T13:21:25;34.20;99.90
60868;DHT22;46702;48.370;10.794;2023-08-21T13:23:51;34.20;99.90
60868;DHT22;46702;48.370;10.794;2023-08-21T13:26:17;34.40;99.90
60868;DHT22;46702;48.370;10.794;2023-08-21T13:28:42;34.30;99.90
60868;DHT22;46702;48.370;10.794;2023-08-21T13:31:08;34.20;99.90
60868;DHT22;46702;48.370;10.794;2023-08-21T13:33:47;34.20;99.90
60868;DHT22;46702;48.370;10.794;2023-08-21T13:36:14;34.30;99.90
60868;DHT22;46702;48.370;10.794;2023-08-21T13:38:39;34.40;99.90
60868;DHT22;46702;48.370;10.794;2023-08-21T13:41:06;34.60;99.90
60868;DHT22;46702;48.370;10.794;2023-08-21T13:43:31;34.70;99.90
60868;DHT22;46702;48.370;10.794;2023-08-21T13:45:57;34.80;99.90
60868;DHT22;46702;48.370;10.794;2023-08-21T13:48:23;34.90;99.90
60868;DHT22;46702;48.370;10.794;2023-08-21T13:50:48;34.50;99.90
60868;DHT22;46702;48.370;10.794;2023-08-21T13:53:14;34.50;99.90
60868;DHT22;46702;48.370;10.794;2023-08-21T13:55:40;34.60;99.90
60868;DHT22;46702;48.370;10.794;2023-08-21T13:58:05;34.80;99.90
60868;DHT22;46702;48.370;10.794;2023-08-21T14:00:31;34.90;99.90
60868;DHT22;46702;48.370;10.794;2023-08-21T14:02:56;34.90;99.90
60868;DHT22;46702;48.370;10.794;2023-08-21T14:05:22;34.80;99.90
60868;DHT22;46702;48.370;10.794;2023-08-21T14:07:48;34.80;99.90
60868;DHT22;46702;48.370;10.794;2023-08-21T14:10:14;34.40;99.90
60868;DHT22;46702;48.370;10.794;2023-08-21T14:12:40;33.60;99.90
60868;DHT22;46702;48.370;10.794;2023-08-21T14:15:06;33.10;99.90
60868;DHT22;46702;48.370;10.794;2023-08-21T14:17:31;32.90;99.90
60868;DHT22;46702;48.370;10.794;2023-08-21T14:19:57;33.50;99.90
60868;DHT22;46702;48.370;10.794;2023-08-21T14:22:23;33.40;99.90
60868;DHT22;46702;48.370;10.794;2023-08-21T14:24:49;33.50;99.90
60868;DHT22;46702;48.370;10.794;2023-08-21T14:27:14;33.80;99.90
60868;DHT22;46702;48.370;10.794;2023-08-21T14:29:42;33.80;99.90
60868;DHT22;46702;48.370;10.794;2023-08-21T14:32:08;33.90;99.90
60868;DHT22;46702;48.370;10.794;2023-08-21T14:34:33;34.00;99.90
60868;DHT22;46702;48.370;10.794;2023-08-21T14:36:59;33.90;99.90
60868;DHT22;46702;48.370;10.794;2023-08-21T14:39:25;34.00;99.90
60868;DHT22;46702;48.370;10.794;2023-08-21T14:41:57;33.70;99.90
60868;DHT22;46702;48.370;10.794;2023-08-21T14:44:24;33.60;99.90
60868;DHT22;46702;48.370;10.794;2023-08-21T14:46:52;33.50;99.90
60868;DHT22;46702;48.370;10.794;2023-08-21T14:49:17;33.50;99.90
60868;DHT22;46702;48.370;10.794;2023-08-21T14:51:43;33.70;99.90
60868;DHT22;46702;48.370;10.794;2023-08-21T14:54:09;33.70;99.90
60868;DHT22;46702;48.370;10.794;2023-08-21T14:56:35;33.70;99.90
60868;DHT22;46702;48.370;10.794;2023-08-21T14:59:00;33.70;99.90
60868;DHT22;46702;48.370;10.794;2023-08-21T15:01:26;33.70;99.90
60868;DHT22;46702;48.370;10.794;2023-08-21T15:03:51;33.60;99.90
60868;DHT22;46702;48.370;10.794;2023-08-21T15:06:17;33.50;99.90
60868;DHT22;46702;48.370;10.794;2023-08-21T15:08:42;33.30;99.90
60868;DHT22;46702;48.370;10.794;2023-08-21T15:11:09;33.20;99.90
60868;DHT22;46702;48.370;10.794;2023-08-21T15:13:36;33.10;99.90
60868;DHT22;46702;48.370;10.794;2023-08-21T15:16:02;33.30;99.90
60868;DHT22;46702;48.370;10.794;2023-08-21T15:18:28;33.50;99.90
60868;DHT22;46702;48.370;10.794;2023-08-21T15:20:53;33.80;99.90
60868;DHT22;46702;48.370;10.794;2023-08-21T15:23:19;33.90;99.90
60868;DHT22;46702;48.370;10.794;2023-08-21T15:25:44;34.00;99.90